sensor_id;sensor_type;location;lat;lon;timestamp;P1;durP1;ratioP1;P2;durP2;ratioP2
72813;SDS011;60945;48.516;-2.768;2023-05-07T00:00:00;2.08;;;1.30;;
72813;SDS011;60945;48.516;-2.768;2023-05-07T00:02:26;2.58;;;1.30;;
72813;SDS011;60945;48.516;-2.768;2023-05-07T00:04:51;2.97;;;1.40;;
72813;SDS011;60945;48.516;-2.768;2023-05-07T00:07:17;3.13;;;1.40;;
72813;SDS011;60945;48.516;-2.768;2023-05-07T00:09:43;3.13;;;1.58;;
72813;SDS011;60945;48.516;-2.768;2023-05-07T00:12:09;2.03;;;1.10;;
72813;SDS011;60945;48.516;-2.768;2023-05-07T00:14:35;3.50;;;1.63;;
72813;SDS011;60945;48.516;-2.768;2023-05-07T00:17:00;3.30;;;1.45;;
72813;SDS011;60945;48.516;-2.768;2023-05-07T00:19:26;3.00;;;1.58;;
72813;SDS011;60945;48.516;-2.768;2023-05-07T00:21:52;3.92;;;1.50;;
72813;SDS011;60945;48.516;-2.768;2023-05-07T00:24:22;3.22;;;1.30;;
72813;SDS011;60945;48.516;-2.768;2023-05-07T00:26:47;2.47;;;1.40;;
72813;SDS011;60945;48.516;-2.768;2023-05-07T00:29:13;2.90;;;1.50;;
72813;SDS011;60945;48.516;-2.768;2023-05-07T00:31:39;3.10;;;1.48;;
72813;SDS011;60945;48.516;-2.768;2023-05-07T00:34:04;2.58;;;1.52;;
72813;SDS011;60945;48.516;-2.768;2023-05-07T00:36:31;3.38;;;1.10;;
72813;SDS011;60945;48.516;-2.768;2023-05-07T00:38:56;2.45;;;1.45;;
72813;SDS011;60945;48.516;-2.768;2023-05-07T00:41:25;3.15;;;1.50;;
72813;SDS011;60945;48.516;-2.768;2023-05-07T00:43:50;3.00;;;1.52;;
72813;SDS011;60945;48.516;-2.768;2023-05-07T00:46:16;3.53;;;1.80;;
72813;SDS011;60945;48.516;-2.768;2023-05-07T00:48:44;4.13;;;1.85;;
72813;SDS011;60945;48.516;-2.768;2023-05-07T00:51:10;3.65;;;1.77;;
72813;SDS011;60945;48.516;-2.768;2023-05-07T00:53:36;5.13;;;1.73;;
72813;SDS011;60945;48.516;-2.768;2023-05-07T00:56:02;4.63;;;2.00;;
72813;SDS011;60945;48.516;-2.768;2023-05-07T00:58:28;4.70;;;2.22;;
72813;SDS011;60945;48.516;-2.768;2023-05-07T01:00:55;3.90;;;1.90;;
72813;SDS011;60945;48.516;-2.768;2023-05-07T01:03:21;2.75;;;1.60;;
72813;SDS011;60945;48.516;-2.768;2023-05-07T01:05:46;2.88;;;1.65;;
72813;SDS011;60945;48.516;-2.768;2023-05-07T01:08:13;4.13;;;1.90;;
72813;SDS011;60945;48.516;-2.768;2023-05-07T01:10:40;5.47;;;2.83;;
72813;SDS011;60945;48.516;-2.768;2023-05-07T01:13:08;5.72;;;3.25;;
72813;SDS011;60945;48.516;-2.768;2023-05-07T01:15:35;4.68;;;2.88;;
72813;SDS011;60945;48.516;-2.768;2023-05-07T01:18:01;4.75;;;2.85;;
72813;SDS011;60945;48.516;-2.768;2023-05-07T01:20:27;4.68;;;2.25;;
72813;SDS011;60945;48.516;-2.768;2023-05-07T01:22:53;4.05;;;2.20;;
72813;SDS011;60945;48.516;-2.768;2023-05-07T01:25:20;5.68;;;2.20;;
72813;SDS011;60945;48.516;-2.768;2023-05-07T01:27:46;3.80;;;2.35;;
72813;SDS011;60945;48.516;-2.768;2023-05-07T01:30:11;4.50;;;2.42;;
72813;SDS011;60945;48.516;-2.768;2023-05-07T01:32:40;5.45;;;3.08;;
72813;SDS011;60945;48.516;-2.768;2023-05-07T01:35:16;5.95;;;3.20;;
72813;SDS011;60945;48.516;-2.768;2023-05-07T01:37:46;5.15;;;3.20;;
72813;SDS011;60945;48.516;-2.768;2023-05-07T01:40:12;5.65;;;3.00;;
72813;SDS011;60945;48.516;-2.768;2023-05-07T01:42:38;9.23;;;4.70;;
72813;SDS011;60945;48.516;-2.768;2023-05-07T01:45:05;8.40;;;3.45;;
72813;SDS011;60945;48.516;-2.768;2023-05-07T01:47:31;8.23;;;4.10;;
72813;SDS011;60945;48.516;-2.768;2023-05-07T01:49:57;10.55;;;4.60;;
72813;SDS011;60945;48.516;-2.768;2023-05-07T01:52:23;7.40;;;4.05;;
72813;SDS011;60945;48.516;-2.768;2023-05-07T01:54:50;11.00;;;5.53;;
72813;SDS011;60945;48.516;-2.768;2023-05-07T01:57:15;18.55;;;9.82;;
72813;SDS011;60945;48.516;-2.768;2023-05-07T01:59:41;24.35;;;11.90;;
72813;SDS011;60945;48.516;-2.768;2023-05-07T02:02:06;31.33;;;14.88;;
72813;SDS011;60945;48.516;-2.768;2023-05-07T02:04:32;29.42;;;15.95;;
72813;SDS011;60945;48.516;-2.768;2023-05-07T02:06:58;32.25;;;17.00;;
72813;SDS011;60945;48.516;-2.768;2023-05-07T02:09:23;38.20;;;18.40;;
72813;SDS011;60945;48.516;-2.768;2023-05-07T02:11:49;35.70;;;17.17;;
72813;SDS011;60945;48.516;-2.768;2023-05-07T02:14:14;36.47;;;19.45;;
72813;SDS011;60945;48.516;-2.768;2023-05-07T02:16:40;37.25;;;19.42;;
72813;SDS011;60945;48.516;-2.768;2023-05-07T02:19:06;40.45;;;20.45;;
72813;SDS011;60945;48.516;-2.768;2023-05-07T02:21:32;32.25;;;16.95;;
72813;SDS011;60945;48.516;-2.768;2023-05-07T02:23:57;31.40;;;16.13;;
72813;SDS011;60945;48.516;-2.768;2023-05-07T02:26:23;25.88;;;14.10;;
72813;SDS011;60945;48.516;-2.768;2023-05-07T02:28:49;23.23;;;13.15;;
72813;SDS011;60945;48.516;-2.768;2023-05-07T02:31:14;22.58;;;12.75;;
72813;SDS011;60945;48.516;-2.768;2023-05-07T02:33:43;21.08;;;10.63;;
72813;SDS011;60945;48.516;-2.768;2023-05-07T02:36:10;17.92;;;8.45;;
72813;SDS011;60945;48.516;-2.768;2023-05-07T02:38:36;16.35;;;8.45;;
72813;SDS011;60945;48.516;-2.768;2023-05-07T02:41:02;16.02;;;7.97;;
72813;SDS011;60945;48.516;-2.768;2023-05-07T02:43:28;13.18;;;7.22;;
72813;SDS011;60945;48.516;-2.768;2023-05-07T02:46:00;13.95;;;6.25;;
72813;SDS011;60945;48.516;-2.768;2023-05-07T02:48:33;11.80;;;6.13;;
72813;SDS011;60945;48.516;-2.768;2023-05-07T02:50:59;12.18;;;6.57;;
72813;SDS011;60945;48.516;-2.768;2023-05-07T02:53:25;11.77;;;5.20;;
72813;SDS011;60945;48.516;-2.768;2023-05-07T02:55:52;8.98;;;4.75;;
72813;SDS011;60945;48.516;-2.768;2023-05-07T02:58:18;9.90;;;5.15;;
72813;SDS011;60945;48.516;-2.768;2023-05-07T03:00:44;11.68;;;5.13;;
72813;SDS011;60945;48.516;-2.768;2023-05-07T03:03:10;10.65;;;4.60;;
72813;SDS011;60945;48.516;-2.768;2023-05-07T03:05:36;9.13;;;5.07;;
72813;SDS011;60945;48.516;-2.768;2023-05-07T03:08:02;9.57;;;4.93;;
72813;SDS011;60945;48.516;-2.768;2023-05-07T03:10:28;11.20;;;5.82;;
72813;SDS011;60945;48.516;-2.768;2023-05-07T03:12:54;10.43;;;5.03;;
72813;SDS011;60945;48.516;-2.768;2023-05-07T03:15:20;11.02;;;5.93;;
72813;SDS011;60945;48.516;-2.768;2023-05-07T03:17:46;10.43;;;5.65;;
72813;SDS011;60945;48.516;-2.768;2023-05-07T03:20:12;9.77;;;4.88;;
72813;SDS011;60945;48.516;-2.768;2023-05-07T03:22:38;9.75;;;5.60;;
72813;SDS011;60945;48.516;-2.768;2023-05-07T03:25:05;9.50;;;5.28;;
72813;SDS011;60945;48.516;-2.768;2023-05-07T03:27:31;9.40;;;5.40;;
72813;SDS011;60945;48.516;-2.768;2023-05-07T03:29:59;11.38;;;5.07;;
72813;SDS011;60945;48.516;-2.768;2023-05-07T03:32:25;9.50;;;4.82;;
72813;SDS011;60945;48.516;-2.768;2023-05-07T03:34:51;8.75;;;4.32;;
72813;SDS011;60945;48.516;-2.768;2023-05-07T03:37:16;8.90;;;4.93;;
72813;SDS011;60945;48.516;-2.768;2023-05-07T03:39:42;8.85;;;4.32;;
72813;SDS011;60945;48.516;-2.768;2023-05-07T03:42:08;7.57;;;3.95;;
72813;SDS011;60945;48.516;-2.768;2023-05-07T03:44:33;9.43;;;3.95;;
72813;SDS011;60945;48.516;-2.768;2023-05-07T03:47:02;8.02;;;4.13;;
72813;SDS011;60945;48.516;-2.768;2023-05-07T03:49:28;8.55;;;3.88;;
72813;SDS011;60945;48.516;-2.768;2023-05-07T03:51:54;8.23;;;3.65;;
72813;SDS011;60945;48.516;-2.768;2023-05-07T03:54:20;7.63;;;4.25;;
72813;SDS011;60945;48.516;-2.768;2023-05-07T03:56:46;11.90;;;5.63;;
72813;SDS011;60945;48.516;-2.768;2023-05-07T03:59:12;12.07;;;5.90;;
72813;SDS011;60945;48.516;-2.768;2023-05-07T04:01:38;14.60;;;7.45;;
72813;SDS011;60945;48.516;-2.768;2023-05-07T04:04:04;11.68;;;6.32;;
72813;SDS011;60945;48.516;-2.768;2023-05-07T04:06:30;12.45;;;6.22;;
72813;SDS011;60945;48.516;-2.768;2023-05-07T04:08:56;13.20;;;6.70;;
72813;SDS011;60945;48.516;-2.768;2023-05-07T04:11:22;10.77;;;6.20;;
72813;SDS011;60945;48.516;-2.768;2023-05-07T04:13:47;10.60;;;6.20;;
72813;SDS011;60945;48.516;-2.768;2023-05-07T04:16:13;13.90;;;7.13;;
72813;SDS011;60945;48.516;-2.768;2023-05-07T04:18:38;13.52;;;6.70;;
72813;SDS011;60945;48.516;-2.768;2023-05-07T04:21:04;12.95;;;6.55;;
72813;SDS011;60945;48.516;-2.768;2023-05-07T04:23:30;14.95;;;7.00;;
72813;SDS011;60945;48.516;-2.768;2023-05-07T04:25:56;15.32;;;7.65;;
72813;SDS011;60945;48.516;-2.768;2023-05-07T04:28:24;13.50;;;7.30;;
72813;SDS011;60945;48.516;-2.768;2023-05-07T04:30:50;15.20;;;8.18;;
72813;SDS011;60945;48.516;-2.768;2023-05-07T04:33:16;16.17;;;8.57;;
72813;SDS011;60945;48.516;-2.768;2023-05-07T04:35:42;14.43;;;8.18;;
72813;SDS011;60945;48.516;-2.768;2023-05-07T04:38:08;15.55;;;8.25;;
72813;SDS011;60945;48.516;-2.768;2023-05-07T04:40:35;14.88;;;8.00;;
72813;SDS011;60945;48.516;-2.768;2023-05-07T04:43:01;14.23;;;8.02;;
72813;SDS011;60945;48.516;-2.768;2023-05-07T04:45:27;16.13;;;7.93;;
72813;SDS011;60945;48.516;-2.768;2023-05-07T04:47:52;12.50;;;7.25;;
72813;SDS011;60945;48.516;-2.768;2023-05-07T04:50:18;13.27;;;7.05;;
72813;SDS011;60945;48.516;-2.768;2023-05-07T04:52:44;13.00;;;7.45;;
72813;SDS011;60945;48.516;-2.768;2023-05-07T04:55:10;13.75;;;6.93;;
72813;SDS011;60945;48.516;-2.768;2023-05-07T04:57:36;13.15;;;7.05;;
72813;SDS011;60945;48.516;-2.768;2023-05-07T05:00:04;11.65;;;6.32;;
72813;SDS011;60945;48.516;-2.768;2023-05-07T05:02:31;13.27;;;7.05;;
72813;SDS011;60945;48.516;-2.768;2023-05-07T05:04:59;14.23;;;6.70;;
72813;SDS011;60945;48.516;-2.768;2023-05-07T05:07:27;12.68;;;6.60;;
72813;SDS011;60945;48.516;-2.768;2023-05-07T05:09:53;11.10;;;6.30;;
72813;SDS011;60945;48.516;-2.768;2023-05-07T05:12:19;11.73;;;6.68;;
72813;SDS011;60945;48.516;-2.768;2023-05-07T05:14:45;11.65;;;6.45;;
72813;SDS011;60945;48.516;-2.768;2023-05-07T05:17:10;14.82;;;6.78;;
72813;SDS011;60945;48.516;-2.768;2023-05-07T05:19:36;12.40;;;6.28;;
72813;SDS011;60945;48.516;-2.768;2023-05-07T05:22:02;13.73;;;6.82;;
72813;SDS011;60945;48.516;-2.768;2023-05-07T05:24:29;12.73;;;6.53;;
72813;SDS011;60945;48.516;-2.768;2023-05-07T05:26:55;11.85;;;5.53;;
72813;SDS011;60945;48.516;-2.768;2023-05-07T05:29:21;13.02;;;6.45;;
72813;SDS011;60945;48.516;-2.768;2023-05-07T05:31:46;12.93;;;6.20;;
72813;SDS011;60945;48.516;-2.768;2023-05-07T05:34:12;15.23;;;6.60;;
72813;SDS011;60945;48.516;-2.768;2023-05-07T05:36:38;12.80;;;5.95;;
72813;SDS011;60945;48.516;-2.768;2023-05-07T05:39:04;13.57;;;6.03;;
72813;SDS011;60945;48.516;-2.768;2023-05-07T05:41:29;11.63;;;5.60;;
72813;SDS011;60945;48.516;-2.768;2023-05-07T05:43:55;13.73;;;5.55;;
72813;SDS011;60945;48.516;-2.768;2023-05-07T05:46:21;13.60;;;5.35;;
72813;SDS011;60945;48.516;-2.768;2023-05-07T05:48:46;11.32;;;5.43;;
72813;SDS011;60945;48.516;-2.768;2023-05-07T05:51:12;13.48;;;5.22;;
72813;SDS011;60945;48.516;-2.768;2023-05-07T05:53:38;8.85;;;5.03;;
72813;SDS011;60945;48.516;-2.768;2023-05-07T05:56:03;10.50;;;4.97;;
72813;SDS011;60945;48.516;-2.768;2023-05-07T05:58:29;10.73;;;5.65;;
72813;SDS011;60945;48.516;-2.768;2023-05-07T06:00:55;10.93;;;4.28;;
72813;SDS011;60945;48.516;-2.768;2023-05-07T06:03:21;11.45;;;4.55;;
72813;SDS011;60945;48.516;-2.768;2023-05-07T06:05:48;10.30;;;4.57;;
72813;SDS011;60945;48.516;-2.768;2023-05-07T06:08:14;13.57;;;5.63;;
72813;SDS011;60945;48.516;-2.768;2023-05-07T06:10:39;14.20;;;5.68;;
72813;SDS011;60945;48.516;-2.768;2023-05-07T06:13:05;11.30;;;4.70;;
72813;SDS011;60945;48.516;-2.768;2023-05-07T06:15:31;11.20;;;5.03;;
72813;SDS011;60945;48.516;-2.768;2023-05-07T06:17:56;11.93;;;4.72;;
72813;SDS011;60945;48.516;-2.768;2023-05-07T06:20:22;9.10;;;3.80;;
72813;SDS011;60945;48.516;-2.768;2023-05-07T06:22:48;8.68;;;3.78;;
72813;SDS011;60945;48.516;-2.768;2023-05-07T06:25:14;9.88;;;5.10;;
72813;SDS011;60945;48.516;-2.768;2023-05-07T06:27:40;10.10;;;4.43;;
72813;SDS011;60945;48.516;-2.768;2023-05-07T06:30:06;10.88;;;3.90;;
72813;SDS011;60945;48.516;-2.768;2023-05-07T06:32:32;8.73;;;4.15;;
72813;SDS011;60945;48.516;-2.768;2023-05-07T06:34:57;8.10;;;4.18;;
72813;SDS011;60945;48.516;-2.768;2023-05-07T06:37:23;8.80;;;4.10;;
72813;SDS011;60945;48.516;-2.768;2023-05-07T06:39:49;8.45;;;4.60;;
72813;SDS011;60945;48.516;-2.768;2023-05-07T06:42:14;9.80;;;4.40;;
72813;SDS011;60945;48.516;-2.768;2023-05-07T06:44:40;7.25;;;3.65;;
72813;SDS011;60945;48.516;-2.768;2023-05-07T06:47:05;8.02;;;4.53;;
72813;SDS011;60945;48.516;-2.768;2023-05-07T06:49:31;9.65;;;4.68;;
72813;SDS011;60945;48.516;-2.768;2023-05-07T06:51:57;7.50;;;4.40;;
72813;SDS011;60945;48.516;-2.768;2023-05-07T06:54:23;7.30;;;4.72;;
72813;SDS011;60945;48.516;-2.768;2023-05-07T06:56:49;10.35;;;5.47;;
72813;SDS011;60945;48.516;-2.768;2023-05-07T06:59:14;8.55;;;4.47;;
72813;SDS011;60945;48.516;-2.768;2023-05-07T07:01:40;8.18;;;4.90;;
72813;SDS011;60945;48.516;-2.768;2023-05-07T07:04:06;9.93;;;5.68;;
72813;SDS011;60945;48.516;-2.768;2023-05-07T07:06:32;11.60;;;5.93;;
72813;SDS011;60945;48.516;-2.768;2023-05-07T07:08:58;12.15;;;6.00;;
72813;SDS011;60945;48.516;-2.768;2023-05-07T07:11:24;10.85;;;5.95;;
72813;SDS011;60945;48.516;-2.768;2023-05-07T07:13:50;10.65;;;6.00;;
72813;SDS011;60945;48.516;-2.768;2023-05-07T07:16:15;12.35;;;6.45;;
72813;SDS011;60945;48.516;-2.768;2023-05-07T07:18:41;9.48;;;5.43;;
72813;SDS011;60945;48.516;-2.768;2023-05-07T07:21:07;11.57;;;5.30;;
72813;SDS011;60945;48.516;-2.768;2023-05-07T07:23:32;12.23;;;6.55;;
72813;SDS011;60945;48.516;-2.768;2023-05-07T07:25:58;13.32;;;6.60;;
72813;SDS011;60945;48.516;-2.768;2023-05-07T07:28:24;13.27;;;6.53;;
72813;SDS011;60945;48.516;-2.768;2023-05-07T07:30:49;13.75;;;6.80;;
72813;SDS011;60945;48.516;-2.768;2023-05-07T07:33:15;14.57;;;6.95;;
72813;SDS011;60945;48.516;-2.768;2023-05-07T07:35:43;15.75;;;7.22;;
72813;SDS011;60945;48.516;-2.768;2023-05-07T07:38:09;12.48;;;6.63;;
72813;SDS011;60945;48.516;-2.768;2023-05-07T07:40:35;12.00;;;6.70;;
72813;SDS011;60945;48.516;-2.768;2023-05-07T07:43:01;11.40;;;5.85;;
72813;SDS011;60945;48.516;-2.768;2023-05-07T07:45:26;12.10;;;6.00;;
72813;SDS011;60945;48.516;-2.768;2023-05-07T07:47:52;13.50;;;6.10;;
72813;SDS011;60945;48.516;-2.768;2023-05-07T07:50:18;15.27;;;5.82;;
72813;SDS011;60945;48.516;-2.768;2023-05-07T07:52:44;11.50;;;5.65;;
72813;SDS011;60945;48.516;-2.768;2023-05-07T07:55:10;15.75;;;6.75;;
72813;SDS011;60945;48.516;-2.768;2023-05-07T07:57:35;13.32;;;6.38;;
72813;SDS011;60945;48.516;-2.768;2023-05-07T08:00:01;15.95;;;6.47;;
72813;SDS011;60945;48.516;-2.768;2023-05-07T08:02:27;12.80;;;6.70;;
72813;SDS011;60945;48.516;-2.768;2023-05-07T08:04:53;15.43;;;6.28;;
72813;SDS011;60945;48.516;-2.768;2023-05-07T08:07:18;14.48;;;6.40;;
72813;SDS011;60945;48.516;-2.768;2023-05-07T08:09:45;14.95;;;7.28;;
72813;SDS011;60945;48.516;-2.768;2023-05-07T08:12:11;12.68;;;6.22;;
72813;SDS011;60945;48.516;-2.768;2023-05-07T08:14:37;12.43;;;5.93;;
72813;SDS011;60945;48.516;-2.768;2023-05-07T08:17:03;13.70;;;6.90;;
72813;SDS011;60945;48.516;-2.768;2023-05-07T08:19:29;14.60;;;6.70;;
72813;SDS011;60945;48.516;-2.768;2023-05-07T08:21:55;13.98;;;6.45;;
72813;SDS011;60945;48.516;-2.768;2023-05-07T08:24:20;13.65;;;6.80;;
72813;SDS011;60945;48.516;-2.768;2023-05-07T08:26:46;11.75;;;6.07;;
72813;SDS011;60945;48.516;-2.768;2023-05-07T08:29:12;15.48;;;7.32;;
72813;SDS011;60945;48.516;-2.768;2023-05-07T08:31:37;16.13;;;7.32;;
72813;SDS011;60945;48.516;-2.768;2023-05-07T08:34:05;15.77;;;6.78;;
72813;SDS011;60945;48.516;-2.768;2023-05-07T08:36:31;13.98;;;5.95;;
72813;SDS011;60945;48.516;-2.768;2023-05-07T08:38:57;14.88;;;5.35;;
72813;SDS011;60945;48.516;-2.768;2023-05-07T08:41:23;15.13;;;5.28;;
72813;SDS011;60945;48.516;-2.768;2023-05-07T08:43:49;16.27;;;4.78;;
72813;SDS011;60945;48.516;-2.768;2023-05-07T08:46:22;12.05;;;4.50;;
72813;SDS011;60945;48.516;-2.768;2023-05-07T08:48:48;10.45;;;5.00;;
72813;SDS011;60945;48.516;-2.768;2023-05-07T08:51:18;14.60;;;5.03;;
72813;SDS011;60945;48.516;-2.768;2023-05-07T08:53:45;11.48;;;5.03;;
72813;SDS011;60945;48.516;-2.768;2023-05-07T08:56:13;16.90;;;5.30;;
72813;SDS011;60945;48.516;-2.768;2023-05-07T08:58:45;12.30;;;4.82;;
72813;SDS011;60945;48.516;-2.768;2023-05-07T09:01:14;11.95;;;5.15;;
72813;SDS011;60945;48.516;-2.768;2023-05-07T09:03:44;13.23;;;4.90;;
72813;SDS011;60945;48.516;-2.768;2023-05-07T09:06:11;13.00;;;5.70;;
72813;SDS011;60945;48.516;-2.768;2023-05-07T09:08:40;12.93;;;5.28;;
72813;SDS011;60945;48.516;-2.768;2023-05-07T09:11:06;14.82;;;5.60;;
72813;SDS011;60945;48.516;-2.768;2023-05-07T09:13:31;11.73;;;5.35;;
72813;SDS011;60945;48.516;-2.768;2023-05-07T09:15:57;12.30;;;5.32;;
72813;SDS011;60945;48.516;-2.768;2023-05-07T09:18:25;11.88;;;5.10;;
72813;SDS011;60945;48.516;-2.768;2023-05-07T09:20:51;13.32;;;5.70;;
72813;SDS011;60945;48.516;-2.768;2023-05-07T09:23:20;17.33;;;5.65;;
72813;SDS011;60945;48.516;-2.768;2023-05-07T09:25:45;12.25;;;5.55;;
72813;SDS011;60945;48.516;-2.768;2023-05-07T09:28:11;13.90;;;5.60;;
72813;SDS011;60945;48.516;-2.768;2023-05-07T09:30:37;12.48;;;4.90;;
72813;SDS011;60945;48.516;-2.768;2023-05-07T09:33:03;11.77;;;4.45;;
72813;SDS011;60945;48.516;-2.768;2023-05-07T09:35:29;14.18;;;4.70;;
72813;SDS011;60945;48.516;-2.768;2023-05-07T09:37:57;10.23;;;3.92;;
72813;SDS011;60945;48.516;-2.768;2023-05-07T09:40:28;11.13;;;4.15;;
72813;SDS011;60945;48.516;-2.768;2023-05-07T09:42:54;11.90;;;4.13;;
72813;SDS011;60945;48.516;-2.768;2023-05-07T09:45:27;13.57;;;4.57;;
72813;SDS011;60945;48.516;-2.768;2023-05-07T09:47:54;8.93;;;3.78;;
72813;SDS011;60945;48.516;-2.768;2023-05-07T09:50:22;9.48;;;4.00;;
72813;SDS011;60945;48.516;-2.768;2023-05-07T09:52:52;9.38;;;4.30;;
72813;SDS011;60945;48.516;-2.768;2023-05-07T09:55:20;10.75;;;4.13;;
72813;SDS011;60945;48.516;-2.768;2023-05-07T09:57:48;9.50;;;4.32;;
72813;SDS011;60945;48.516;-2.768;2023-05-07T10:00:17;10.82;;;4.72;;
72813;SDS011;60945;48.516;-2.768;2023-05-07T10:02:45;9.88;;;4.97;;
72813;SDS011;60945;48.516;-2.768;2023-05-07T10:05:14;10.40;;;4.35;;
72813;SDS011;60945;48.516;-2.768;2023-05-07T10:07:40;10.95;;;4.38;;
72813;SDS011;60945;48.516;-2.768;2023-05-07T10:10:06;10.25;;;4.25;;
72813;SDS011;60945;48.516;-2.768;2023-05-07T10:12:32;10.20;;;4.45;;
72813;SDS011;60945;48.516;-2.768;2023-05-07T10:15:04;10.98;;;3.97;;
72813;SDS011;60945;48.516;-2.768;2023-05-07T10:17:31;12.98;;;4.20;;
72813;SDS011;60945;48.516;-2.768;2023-05-07T10:19:58;14.07;;;4.10;;
72813;SDS011;60945;48.516;-2.768;2023-05-07T10:22:23;7.90;;;4.03;;
72813;SDS011;60945;48.516;-2.768;2023-05-07T10:24:52;10.80;;;3.88;;
72813;SDS011;60945;48.516;-2.768;2023-05-07T10:27:21;13.60;;;4.40;;
72813;SDS011;60945;48.516;-2.768;2023-05-07T10:35:11;10.40;;;4.47;;
72813;SDS011;60945;48.516;-2.768;2023-05-07T10:37:42;11.10;;;4.40;;
72813;SDS011;60945;48.516;-2.768;2023-05-07T10:40:09;10.55;;;4.40;;
72813;SDS011;60945;48.516;-2.768;2023-05-07T10:42:36;9.13;;;4.22;;
72813;SDS011;60945;48.516;-2.768;2023-05-07T10:45:12;8.15;;;4.00;;
72813;SDS011;60945;48.516;-2.768;2023-05-07T10:48:05;7.93;;;4.15;;
72813;SDS011;60945;48.516;-2.768;2023-05-07T10:50:31;9.98;;;4.00;;
72813;SDS011;60945;48.516;-2.768;2023-05-07T10:55:44;7.90;;;3.42;;
72813;SDS011;60945;48.516;-2.768;2023-05-07T10:58:36;8.00;;;3.67;;
72813;SDS011;60945;48.516;-2.768;2023-05-07T11:01:02;6.40;;;3.20;;
72813;SDS011;60945;48.516;-2.768;2023-05-07T11:03:28;7.93;;;3.50;;
72813;SDS011;60945;48.516;-2.768;2023-05-07T11:06:15;9.48;;;3.47;;
72813;SDS011;60945;48.516;-2.768;2023-05-07T11:08:56;8.75;;;3.67;;
72813;SDS011;60945;48.516;-2.768;2023-05-07T11:14:10;6.80;;;3.63;;
72813;SDS011;60945;48.516;-2.768;2023-05-07T11:16:36;8.38;;;3.65;;
72813;SDS011;60945;48.516;-2.768;2023-05-07T11:19:06;6.88;;;3.80;;
72813;SDS011;60945;48.516;-2.768;2023-05-07T11:21:33;11.68;;;4.80;;
72813;SDS011;60945;48.516;-2.768;2023-05-07T11:24:03;8.38;;;4.05;;
72813;SDS011;60945;48.516;-2.768;2023-05-07T11:26:31;11.40;;;5.40;;
72813;SDS011;60945;48.516;-2.768;2023-05-07T11:31:39;13.10;;;4.97;;
72813;SDS011;60945;48.516;-2.768;2023-05-07T11:34:05;10.35;;;4.40;;
72813;SDS011;60945;48.516;-2.768;2023-05-07T11:36:32;7.50;;;4.20;;
72813;SDS011;60945;48.516;-2.768;2023-05-07T11:38:58;8.30;;;4.35;;
72813;SDS011;60945;48.516;-2.768;2023-05-07T11:41:34;14.68;;;4.90;;
72813;SDS011;60945;48.516;-2.768;2023-05-07T11:44:01;11.60;;;5.53;;
72813;SDS011;60945;48.516;-2.768;2023-05-07T11:46:28;12.02;;;5.30;;
72813;SDS011;60945;48.516;-2.768;2023-05-07T11:48:54;11.02;;;4.90;;
72813;SDS011;60945;48.516;-2.768;2023-05-07T11:51:21;16.05;;;5.07;;
72813;SDS011;60945;48.516;-2.768;2023-05-07T11:53:48;12.50;;;5.25;;
72813;SDS011;60945;48.516;-2.768;2023-05-07T11:56:16;10.30;;;4.38;;
72813;SDS011;60945;48.516;-2.768;2023-05-07T11:58:43;12.13;;;4.68;;
72813;SDS011;60945;48.516;-2.768;2023-05-07T12:01:10;9.98;;;4.72;;
72813;SDS011;60945;48.516;-2.768;2023-05-07T12:03:37;11.50;;;4.97;;
72813;SDS011;60945;48.516;-2.768;2023-05-07T12:06:07;10.55;;;4.80;;
72813;SDS011;60945;48.516;-2.768;2023-05-07T12:08:35;10.40;;;4.70;;
72813;SDS011;60945;48.516;-2.768;2023-05-07T12:11:02;10.07;;;4.75;;
72813;SDS011;60945;48.516;-2.768;2023-05-07T12:13:31;14.00;;;5.28;;
72813;SDS011;60945;48.516;-2.768;2023-05-07T12:15:57;14.13;;;5.30;;
72813;SDS011;60945;48.516;-2.768;2023-05-07T12:18:23;13.63;;;5.65;;
72813;SDS011;60945;48.516;-2.768;2023-05-07T12:20:49;10.82;;;4.78;;
72813;SDS011;60945;48.516;-2.768;2023-05-07T12:23:16;10.57;;;4.60;;
72813;SDS011;60945;48.516;-2.768;2023-05-07T12:25:42;13.35;;;5.13;;
72813;SDS011;60945;48.516;-2.768;2023-05-07T12:28:15;8.30;;;4.85;;
72813;SDS011;60945;48.516;-2.768;2023-05-07T12:30:45;10.18;;;4.78;;
72813;SDS011;60945;48.516;-2.768;2023-05-07T12:33:13;15.18;;;5.78;;
72813;SDS011;60945;48.516;-2.768;2023-05-07T12:35:48;11.52;;;4.85;;
72813;SDS011;60945;48.516;-2.768;2023-05-07T12:38:15;14.30;;;4.90;;
72813;SDS011;60945;48.516;-2.768;2023-05-07T12:40:46;11.18;;;4.10;;
72813;SDS011;60945;48.516;-2.768;2023-05-07T12:43:25;11.68;;;4.18;;
72813;SDS011;60945;48.516;-2.768;2023-05-07T12:45:57;11.65;;;4.70;;
72813;SDS011;60945;48.516;-2.768;2023-05-07T12:48:24;11.43;;;3.80;;
72813;SDS011;60945;48.516;-2.768;2023-05-07T12:50:55;9.27;;;3.85;;
72813;SDS011;60945;48.516;-2.768;2023-05-07T12:53:22;13.00;;;4.28;;
72813;SDS011;60945;48.516;-2.768;2023-05-07T12:55:59;9.15;;;4.32;;
72813;SDS011;60945;48.516;-2.768;2023-05-07T12:58:25;10.20;;;4.05;;
72813;SDS011;60945;48.516;-2.768;2023-05-07T13:00:53;9.50;;;4.03;;
72813;SDS011;60945;48.516;-2.768;2023-05-07T13:03:23;10.88;;;3.38;;
72813;SDS011;60945;48.516;-2.768;2023-05-07T13:06:03;14.02;;;3.83;;
72813;SDS011;60945;48.516;-2.768;2023-05-07T13:08:34;10.02;;;4.20;;
72813;SDS011;60945;48.516;-2.768;2023-05-07T13:11:13;7.10;;;3.33;;
72813;SDS011;60945;48.516;-2.768;2023-05-07T13:13:39;9.82;;;4.00;;
72813;SDS011;60945;48.516;-2.768;2023-05-07T13:16:07;9.48;;;4.35;;
72813;SDS011;60945;48.516;-2.768;2023-05-07T13:18:34;11.90;;;4.30;;
72813;SDS011;60945;48.516;-2.768;2023-05-07T13:21:01;9.73;;;4.55;;
72813;SDS011;60945;48.516;-2.768;2023-05-07T13:23:27;8.73;;;3.33;;
72813;SDS011;60945;48.516;-2.768;2023-05-07T13:25:53;9.90;;;4.07;;
72813;SDS011;60945;48.516;-2.768;2023-05-07T13:28:19;12.50;;;3.60;;
72813;SDS011;60945;48.516;-2.768;2023-05-07T13:30:45;8.73;;;3.63;;
72813;SDS011;60945;48.516;-2.768;2023-05-07T13:33:11;12.00;;;3.95;;
72813;SDS011;60945;48.516;-2.768;2023-05-07T13:35:37;11.48;;;3.85;;
72813;SDS011;60945;48.516;-2.768;2023-05-07T13:38:03;8.20;;;3.50;;
72813;SDS011;60945;48.516;-2.768;2023-05-07T13:40:29;8.52;;;3.25;;
72813;SDS011;60945;48.516;-2.768;2023-05-07T13:42:56;9.02;;;3.63;;
72813;SDS011;60945;48.516;-2.768;2023-05-07T13:45:23;10.27;;;4.00;;
72813;SDS011;60945;48.516;-2.768;2023-05-07T13:47:51;7.50;;;3.78;;
72813;SDS011;60945;48.516;-2.768;2023-05-07T13:50:17;7.97;;;3.70;;
72813;SDS011;60945;48.516;-2.768;2023-05-07T13:52:43;10.73;;;3.88;;
72813;SDS011;60945;48.516;-2.768;2023-05-07T13:55:18;6.82;;;3.60;;
72813;SDS011;60945;48.516;-2.768;2023-05-07T13:57:45;6.35;;;3.40;;
72813;SDS011;60945;48.516;-2.768;2023-05-07T14:00:11;8.45;;;3.80;;
72813;SDS011;60945;48.516;-2.768;2023-05-07T14:02:38;7.68;;;3.28;;
72813;SDS011;60945;48.516;-2.768;2023-05-07T14:05:04;10.00;;;3.97;;
72813;SDS011;60945;48.516;-2.768;2023-05-07T14:07:30;6.55;;;3.30;;
72813;SDS011;60945;48.516;-2.768;2023-05-07T14:09:56;10.98;;;4.20;;
72813;SDS011;60945;48.516;-2.768;2023-05-07T14:12:24;9.02;;;3.90;;
72813;SDS011;60945;48.516;-2.768;2023-05-07T14:14:50;10.60;;;4.25;;
72813;SDS011;60945;48.516;-2.768;2023-05-07T14:17:18;7.85;;;3.58;;
72813;SDS011;60945;48.516;-2.768;2023-05-07T14:19:45;13.57;;;4.28;;
72813;SDS011;60945;48.516;-2.768;2023-05-07T14:22:10;13.52;;;4.45;;
72813;SDS011;60945;48.516;-2.768;2023-05-07T14:24:38;9.90;;;3.38;;
72813;SDS011;60945;48.516;-2.768;2023-05-07T14:27:04;12.02;;;4.28;;
72813;SDS011;60945;48.516;-2.768;2023-05-07T14:29:30;8.40;;;3.97;;
72813;SDS011;60945;48.516;-2.768;2023-05-07T14:31:56;10.25;;;4.22;;
72813;SDS011;60945;48.516;-2.768;2023-05-07T14:34:22;9.98;;;4.25;;
72813;SDS011;60945;48.516;-2.768;2023-05-07T14:36:47;10.60;;;4.10;;